Time;durP1;ratioP1;P1;durP2;ratioP2;P2;SDS_P1;SDS_P2;PMS_P1;PMS_P2;Temp;Humidity;BMP_temperature;BMP_pressure;BME280_temperature;BME280_humidity;BME280_pressure;Samples;Min_cycle;Max_cycle;Signal;HPM_P1;HPM_P2
2022/09/17 00:01:23;;;;;;;1.42;0.90;;;;;;;;;;5093764;28;20059;-71
2022/09/17 00:03:51;;;;;;;1.60;0.90;;;;;;;;;;5093470;28;20574;-71
2022/09/17 00:06:18;;;;;;;1.45;1.00;;;;;;;;;;5093485;28;20127;-71
2022/09/17 00:08:45;;;;;;;0.98;0.55;;;;;;;;;;5093523;28;20048;-71
2022/09/17 00:11:13;;;;;;;2.05;0.75;;;;;;;;;;5093489;28;20043;-71
2022/09/17 00:13:40;;;;;;;1.20;0.75;;;;;;;;;;5081066;28;20052;-71
2022/09/17 00:16:06;;;;;;;0.90;0.80;;;;;;;;;;5075824;28;20050;-71
2022/09/17 00:18:35;;;;;;;0.80;0.60;;;;;;;;;;5091845;28;20040;-71
2022/09/17 00:21:02;;;;;;;1.75;0.77;;;;;;;;;;5092906;28;20056;-71
2022/09/17 00:23:28;;;;;;;1.80;0.90;;;;;;;;;;5093507;28;20059;-71
2022/09/17 00:25:55;;;;;;;0.95;0.70;;;;;;;;;;5093427;28;20052;-71
2022/09/17 00:28:21;;;;;;;1.15;0.93;;;;;;;;;;5092911;28;20495;-71
2022/09/17 00:30:47;;;;;;;1.35;0.80;;;;;;;;;;5093553;28;20053;-71
2022/09/17 00:33:14;;;;;;;1.67;0.90;;;;;;;;;;5092871;28;20040;-71
2022/09/17 00:35:41;;;;;;;1.73;0.87;;;;;;;;;;5092880;28;20059;-72
2022/09/17 00:38:07;;;;;;;1.00;0.85;;;;;;;;;;5093028;28;20044;-71
2022/09/17 00:40:36;;;;;;;1.23;0.70;;;;;;;;;;5092989;28;20097;-71
2022/09/17 00:43:03;;;;;;;1.33;0.77;;;;;;;;;;5092683;28;20054;-71
2022/09/17 00:45:31;;;;;;;1.27;0.80;;;;;;;;;;5093070;28;20054;-71
2022/09/17 00:47:58;;;;;;;0.73;0.50;;;;;;;;;;5092698;28;20052;-71
2022/09/17 00:50:25;;;;;;;;;;;;;;;;;;5093384;28;20055;-71
2022/09/17 00:52:56;;;;;;;2.00;1.30;;;;;;;;;;5092767;28;19928;-71
2022/09/17 00:55:27;;;;;;;0.80;0.80;;;;;;;;;;5092382;28;20040;-71
2022/09/17 00:57:55;;;;;;;1.38;0.93;;;;;;;;;;5092725;28;20392;-71
2022/09/17 01:00:21;;;;;;;1.40;1.30;;;;;;;;;;5092786;28;20048;-71
2022/09/17 01:02:48;;;;;;;1.55;0.70;;;;;;;;;;5092882;28;20135;-71
2022/09/17 01:05:15;;;;;;;1.45;0.90;;;;;;;;;;5092620;28;20047;-71
2022/09/17 01:07:41;;;;;;;0.98;0.90;;;;;;;;;;5092586;28;20048;-71
2022/09/17 01:10:27;;;;;;;2.05;1.17;;;;;;;;;;5092254;28;20048;-71
2022/09/17 01:13:01;;;;;;;2.22;1.10;;;;;;;;;;5092139;28;20052;-71
2022/09/17 01:15:33;;;;;;;1.10;1.00;;;;;;;;;;5092288;28;20058;-71
2022/09/17 01:18:11;;;;;;;2.72;0.90;;;;;;;;;;5092340;28;20047;-71
2022/09/17 01:20:49;;;;;;;1.17;0.80;;;;;;;;;;5092003;28;20062;-71
2022/09/17 01:23:35;;;;;;;1.88;0.80;;;;;;;;;;5092173;28;20059;-71
2022/09/17 01:26:20;;;;;;;1.77;0.93;;;;;;;;;;5092264;28;20062;-71
2022/09/17 01:29:12;;;;;;;1.58;0.90;;;;;;;;;;5091986;28;20510;-71
2022/09/17 01:31:57;;;;;;;1.05;0.88;;;;;;;;;;5083364;28;20044;-70
2022/09/17 01:34:27;;;;;;;1.17;0.80;;;;;;;;;;5092107;28;20047;-71
2022/09/17 01:36:53;;;;;;;2.58;0.85;;;;;;;;;;5092178;28;20057;-71
2022/09/17 01:39:29;;;;;;;1.65;0.73;;;;;;;;;;5092184;28;20051;-71
2022/09/17 01:42:05;;;;;;;1.20;0.93;;;;;;;;;;5091841;28;20047;-71
2022/09/17 01:44:41;;;;;;;0.90;0.90;;;;;;;;;;5091773;28;20048;-71
2022/09/17 01:47:19;;;;;;;1.60;1.00;;;;;;;;;;5092009;28;20040;-71
2022/09/17 01:49:47;;;;;;;1.15;1.05;;;;;;;;;;5091816;28;20052;-71
2022/09/17 01:52:14;;;;;;;2.03;1.00;;;;;;;;;;5091848;28;20048;-71
2022/09/17 01:54:43;;;;;;;2.05;0.90;;;;;;;;;;5086618;28;20052;-71
2022/09/17 01:57:18;;;;;;;1.90;1.00;;;;;;;;;;5091381;28;20391;-71
2022/09/17 01:59:48;;;;;;;1.67;1.00;;;;;;;;;;5091668;28;20058;-71
2022/09/17 02:02:30;;;;;;;2.22;0.98;;;;;;;;;;5092194;28;20111;-71
2022/09/17 02:05:00;;;;;;;1.52;0.90;;;;;;;;;;5091572;28;20048;-71
2022/09/17 02:07:27;;;;;;;2.95;0.95;;;;;;;;;;5095167;28;20051;-71
2022/09/17 02:10:09;;;;;;;1.27;1.00;;;;;;;;;;5096013;28;20402;-71
2022/09/17 02:12:44;;;;;;;0.85;0.70;;;;;;;;;;5095879;28;20043;-71
2022/09/17 02:15:15;;;;;;;1.40;0.85;;;;;;;;;;5095478;28;20083;-70
2022/09/17 02:17:44;;;;;;;0.68;0.68;;;;;;;;;;5095670;28;20044;-71
2022/09/17 02:20:10;;;;;;;2.05;0.82;;;;;;;;;;5095500;28;20067;-71
2022/09/17 02:22:37;;;;;;;0.70;0.70;;;;;;;;;;5095418;28;20067;-70
2022/09/17 02:25:06;;;;;;;1.42;0.80;;;;;;;;;;5095692;28;20052;-71
2022/09/17 02:27:45;;;;;;;1.55;0.75;;;;;;;;;;5095597;28;20062;-72
2022/09/17 02:30:12;;;;;;;1.10;0.85;;;;;;;;;;5095547;28;20052;-72
2022/09/17 02:32:38;;;;;;;2.15;0.70;;;;;;;;;;5095221;28;20052;-73
2022/09/17 02:35:05;;;;;;;2.15;0.95;;;;;;;;;;5095607;28;20071;-71
2022/09/17 02:37:32;;;;;;;1.92;0.80;;;;;;;;;;5095171;28;20048;-71
2022/09/17 02:39:59;;;;;;;3.38;1.00;;;;;;;;;;5095303;28;20048;-71
2022/09/17 02:42:37;;;;;;;1.13;0.88;;;;;;;;;;5095028;28;20484;-71
2022/09/17 02:45:07;;;;;;;0.88;0.70;;;;;;;;;;5095307;28;20052;-73
2022/09/17 02:47:45;;;;;;;1.20;0.82;;;;;;;;;;5095211;28;20055;-72
2022/09/17 02:50:23;;;;;;;2.30;1.17;;;;;;;;;;5094185;28;20407;-72
2022/09/17 02:53:04;;;;;;;1.27;0.80;;;;;;;;;;5095203;28;20055;-72
2022/09/17 02:55:44;;;;;;;1.27;1.00;;;;;;;;;;5095020;28;20044;-71
2022/09/17 02:58:20;;;;;;;1.83;0.75;;;;;;;;;;5094824;28;20040;-71
2022/09/17 03:00:46;;;;;;;0.93;0.80;;;;;;;;;;5095040;28;20048;-71
2022/09/17 03:03:20;;;;;;;1.45;0.88;;;;;;;;;;5094865;28;20289;-71
2022/09/17 03:05:47;;;;;;;1.42;1.23;;;;;;;;;;5094661;28;20040;-73
2022/09/17 03:08:19;;;;;;;2.63;1.00;;;;;;;;;;5094721;28;20411;-71
2022/09/17 03:10:47;;;;;;;1.42;0.80;;;;;;;;;;5094865;28;20048;-71
2022/09/17 03:13:14;;;;;;;2.00;1.00;;;;;;;;;;5094355;28;20058;-72
2022/09/17 03:15:40;;;;;;;2.35;1.00;;;;;;;;;;5093321;28;20040;-71
2022/09/17 03:18:07;;;;;;;0.80;0.68;;;;;;;;;;5094283;28;20040;-71
2022/09/17 03:20:33;;;;;;;1.45;0.70;;;;;;;;;;5094315;28;20122;-71
2022/09/17 03:23:00;;;;;;;4.32;1.00;;;;;;;;;;5094938;28;20051;-71
2022/09/17 03:25:27;;;;;;;3.30;0.80;;;;;;;;;;5094404;28;20055;-72
2022/09/17 03:27:53;;;;;;;1.23;0.70;;;;;;;;;;5094240;28;20048;-71
2022/09/17 03:30:19;;;;;;;1.83;1.17;;;;;;;;;;5094113;28;20052;-72
2022/09/17 03:32:46;;;;;;;1.23;0.85;;;;;;;;;;5094068;28;20048;-71
2022/09/17 03:35:12;;;;;;;0.98;0.73;;;;;;;;;;5094602;28;20062;-71
2022/09/17 03:37:39;;;;;;;2.15;1.05;;;;;;;;;;5094091;28;20506;-71
2022/09/17 03:40:05;;;;;;;0.82;0.82;;;;;;;;;;5093057;28;20047;-71
2022/09/17 03:42:32;;;;;;;1.42;0.80;;;;;;;;;;5094043;28;20068;-72
2022/09/17 03:44:58;;;;;;;1.35;1.08;;;;;;;;;;5094479;28;20058;-72
2022/09/17 03:47:25;;;;;;;2.00;0.95;;;;;;;;;;5093806;28;20050;-71
2022/09/17 03:49:51;;;;;;;0.80;0.80;;;;;;;;;;5094059;28;20048;-71
2022/09/17 03:52:17;;;;;;;1.00;1.00;;;;;;;;;;5094040;28;20044;-72
2022/09/17 03:54:44;;;;;;;0.85;0.85;;;;;;;;;;5093614;28;20048;-71
2022/09/17 03:57:10;;;;;;;1.35;0.70;;;;;;;;;;5093690;28;20052;-72
2022/09/17 03:59:36;;;;;;;0.98;0.75;;;;;;;;;;5094117;28;20048;-71
2022/09/17 04:02:03;;;;;;;1.20;0.73;;;;;;;;;;5093604;28;20048;-71
2022/09/17 04:04:29;;;;;;;2.10;0.90;;;;;;;;;;5093710;28;20404;-71
2022/09/17 04:06:56;;;;;;;1.15;1.05;;;;;;;;;;5093314;28;20442;-71
2022/09/17 04:09:22;;;;;;;1.30;1.00;;;;;;;;;;5093420;28;20063;-71
2022/09/17 04:11:48;;;;;;;1.00;0.90;;;;;;;;;;5093436;28;20411;-72
2022/09/17 04:14:15;;;;;;;1.08;1.00;;;;;;;;;;5093316;28;20051;-71
2022/09/17 04:16:41;;;;;;;1.55;1.00;;;;;;;;;;5093179;28;20043;-71
2022/09/17 04:19:08;;;;;;;1.35;1.00;;;;;;;;;;5093300;28;20047;-71
2022/09/17 04:21:34;;;;;;;0.93;0.73;;;;;;;;;;5093597;28;20415;-72
2022/09/17 04:24:00;;;;;;;0.95;0.93;;;;;;;;;;5093327;28;20054;-72
2022/09/17 04:26:29;;;;;;;0.85;0.77;;;;;;;;;;5093114;28;20087;-72
2022/09/17 04:28:56;;;;;;;2.35;1.00;;;;;;;;;;5092356;28;20411;-72
2022/09/17 04:31:23;;;;;;;1.55;1.02;;;;;;;;;;5093227;28;20044;-71
2022/09/17 04:33:50;;;;;;;1.92;1.02;;;;;;;;;;5078816;28;20059;-72
2022/09/17 04:36:16;;;;;;;5.75;0.90;;;;;;;;;;5093199;28;20055;-72
2022/09/17 04:38:43;;;;;;;1.05;0.77;;;;;;;;;;5092762;28;20509;-71
2022/09/17 04:41:09;;;;;;;2.00;1.13;;;;;;;;;;5092981;28;20040;-71
2022/09/17 04:43:35;;;;;;;2.05;0.88;;;;;;;;;;5092981;28;20430;-71
2022/09/17 04:46:02;;;;;;;2.92;0.95;;;;;;;;;;5092682;28;20480;-71
2022/09/17 04:48:28;;;;;;;1.83;0.70;;;;;;;;;;5092990;28;20052;-71
2022/09/17 04:51:08;;;;;;;2.80;1.00;;;;;;;;;;5092594;28;20039;-71
2022/09/17 04:53:53;;;;;;;3.03;1.00;;;;;;;;;;5092019;28;20060;-71
2022/09/17 04:56:23;;;;;;;1.73;1.13;;;;;;;;;;5092862;28;20052;-70
2022/09/17 04:59:05;;;;;;;1.00;0.70;;;;;;;;;;5093220;28;20414;-71
2022/09/17 05:01:35;;;;;;;1.00;0.80;;;;;;;;;;5091542;28;20135;-71
2022/09/17 05:04:10;;;;;;;0.93;0.90;;;;;;;;;;5092476;28;20052;-70
2022/09/17 05:06:51;;;;;;;0.85;0.70;;;;;;;;;;5090421;28;20143;-71
2022/09/17 05:09:34;;;;;;;3.33;1.00;;;;;;;;;;5092971;28;20048;-72
2022/09/17 05:12:18;;;;;;;1.00;0.90;;;;;;;;;;5092177;28;20052;-71
2022/09/17 05:14:59;;;;;;;1.67;0.75;;;;;;;;;;5092375;28;20481;-70
2022/09/17 05:17:26;;;;;;;3.03;1.15;;;;;;;;;;5092152;28;20055;-70
2022/09/17 05:20:08;;;;;;;1.88;1.08;;;;;;;;;;5089513;28;20562;-70
2022/09/17 05:22:50;;;;;;;2.25;0.98;;;;;;;;;;5089804;28;20054;-71
2022/09/17 05:25:24;;;;;;;2.75;0.88;;;;;;;;;;5092036;28;20048;-71
2022/09/17 05:28:06;;;;;;;1.35;1.10;;;;;;;;;;5089630;28;20052;-72
2022/09/17 05:30:48;;;;;;;1.60;0.77;;;;;;;;;;5092292;28;20068;-71
2022/09/17 05:33:22;;;;;;;1.40;0.77;;;;;;;;;;5091130;28;20113;-71
2022/09/17 05:36:06;;;;;;;2.40;1.00;;;;;;;;;;5091991;28;20044;-71
2022/09/17 05:38:50;;;;;;;0.90;0.85;;;;;;;;;;5091824;28;20511;-71
2022/09/17 05:41:36;;;;;;;3.70;1.20;;;;;;;;;;5090933;28;20051;-71
2022/09/17 05:44:17;;;;;;;2.00;1.25;;;;;;;;;;5091939;28;20048;-71
2022/09/17 05:47:04;;;;;;;2.95;1.25;;;;;;;;;;5091769;28;20048;-71
2022/09/17 05:49:32;;;;;;;1.58;0.90;;;;;;;;;;5091790;28;20514;-71
2022/09/17 05:52:10;;;;;;;3.25;1.00;;;;;;;;;;5091935;28;20403;-71
2022/09/17 05:54:51;;;;;;;1.65;1.00;;;;;;;;;;5091495;28;20531;-71
2022/09/17 05:57:25;;;;;;;1.65;1.02;;;;;;;;;;5090235;28;20105;-71
2022/09/17 05:59:53;;;;;;;1.15;1.05;;;;;;;;;;5091827;28;20052;-71
2022/09/17 06:02:36;;;;;;;1.10;1.00;;;;;;;;;;5087839;28;20113;-71
2022/09/17 06:05:17;;;;;;;2.00;1.20;;;;;;;;;;5091538;28;20050;-71
2022/09/17 06:07:52;;;;;;;1.75;1.20;;;;;;;;;;5090446;28;20063;-71
2022/09/17 06:10:39;;;;;;;4.03;1.17;;;;;;;;;;5091768;28;20079;-71
2022/09/17 06:13:08;;;;;;;5.25;4.75;;;;;;;;;;5073925;28;20048;-71
2022/09/17 06:15:59;;;;;;;3.20;2.40;;;;;;;;;;5091368;28;20052;-71
2022/09/17 06:25:14;;;;;;;2.08;1.90;;;;;;;;;;5091474;28;20052;-71
2022/09/17 06:27:56;;;;;;;2.88;1.55;;;;;;;;;;5089358;28;20059;-71
2022/09/17 06:30:45;;;;;;;1.35;1.13;;;;;;;;;;5091589;28;20081;-71
2022/09/17 06:33:26;;;;;;;2.05;1.50;;;;;;;;;;5091582;28;20130;-71
2022/09/17 06:36:15;;;;;;;1.55;1.40;;;;;;;;;;5090621;28;20465;-71
2022/09/17 06:38:45;;;;;;;2.30;1.50;;;;;;;;;;5091354;28;20502;-71
2022/09/17 06:41:27;;;;;;;2.20;1.50;;;;;;;;;;5091355;28;20047;-71
2022/09/17 06:44:00;;;;;;;2.08;1.33;;;;;;;;;;5091000;28;20058;-71
2022/09/17 06:46:35;;;;;;;2.00;1.52;;;;;;;;;;5091258;28;20411;-71
2022/09/17 06:49:12;;;;;;;2.53;1.42;;;;;;;;;;5089631;28;20044;-71
2022/09/17 06:51:51;;;;;;;2.13;1.58;;;;;;;;;;5092276;28;20141;-71
2022/09/17 06:54:21;;;;;;;2.33;1.33;;;;;;;;;;5095093;28;20046;-71
2022/09/17 06:57:05;;;;;;;3.72;1.10;;;;;;;;;;5093889;28;20369;-71
2022/09/17 06:59:35;;;;;;;4.47;1.45;;;;;;;;;;5093787;28;20048;-72
2022/09/17 07:02:17;;;;;;;3.10;1.15;;;;;;;;;;5093060;28;20059;-71
2022/09/17 07:04:57;;;;;;;2.72;1.33;;;;;;;;;;5094784;28;20156;-71
2022/09/17 07:07:23;;;;;;;1.65;1.30;;;;;;;;;;5093971;28;20056;-71
2022/09/17 07:10:08;;;;;;;2.13;1.65;;;;;;;;;;5094904;28;20056;-73
2022/09/17 07:12:39;;;;;;;3.08;1.90;;;;;;;;;;5093834;28;20438;-74
2022/09/17 07:15:25;;;;;;;2.85;2.25;;;;;;;;;;5092620;28;20056;-74
2022/09/17 07:18:13;;;;;;;2.50;1.90;;;;;;;;;;5093785;28;20032;-73
2022/09/17 07:20:58;;;;;;;1.42;1.33;;;;;;;;;;5093256;28;20051;-74
2022/09/17 07:23:45;;;;;;;1.73;1.30;;;;;;;;;;5093876;28;20064;-74
2022/09/17 07:26:14;;;;;;;2.50;1.27;;;;;;;;;;5078900;28;20056;-72
2022/09/17 07:29:14;;;;;;;3.05;1.30;;;;;;;;;;5092976;28;20136;-72
2022/09/17 07:32:01;;;;;;;3.55;1.30;;;;;;;;;;5094146;28;20491;-71
2022/09/17 07:34:30;;;;;;;2.65;1.30;;;;;;;;;;5094020;28;20048;-72
2022/09/17 07:37:11;;;;;;;2.75;1.50;;;;;;;;;;5094755;28;20040;-71
2022/09/17 07:39:53;;;;;;;3.60;1.50;;;;;;;;;;5093779;28;20043;-71
2022/09/17 07:42:40;;;;;;;5.65;1.67;;;;;;;;;;5094697;28;20139;-72
2022/09/17 07:45:08;;;;;;;4.40;1.55;;;;;;;;;;5091789;28;20048;-73
2022/09/17 07:47:55;;;;;;;4.25;1.50;;;;;;;;;;5092800;28;20525;-72
2022/09/17 07:50:30;;;;;;;3.25;1.33;;;;;;;;;;5092924;28;20084;-72
2022/09/17 07:53:15;;;;;;;3.95;1.42;;;;;;;;;;5093687;28;20047;-72
2022/09/17 07:56:05;;;;;;;3.40;1.55;;;;;;;;;;5093248;28;20043;-72
2022/09/17 07:58:52;;;;;;;3.17;1.63;;;;;;;;;;5094817;28;20052;-72
2022/09/17 08:01:22;;;;;;;2.28;1.20;;;;;;;;;;5093393;28;20062;-72
2022/09/17 08:03:53;;;;;;;5.50;3.17;;;;;;;;;;5092294;28;20054;-75
2022/09/17 08:06:37;;;;;;;5.78;1.42;;;;;;;;;;5093260;28;20066;-72
2022/09/17 08:09:26;;;;;;;3.63;1.30;;;;;;;;;;5092201;28;20071;-70
2022/09/17 08:12:07;;;;;;;3.15;1.70;;;;;;;;;;5089870;28;20080;-71
2022/09/17 08:14:48;;;;;;;7.45;4.68;;;;;;;;;;5089686;28;20044;-70
2022/09/17 08:17:43;;;;;;;3.78;1.80;;;;;;;;;;5089634;28;20028;-71
2022/09/17 08:20:13;;;;;;;4.65;2.63;;;;;;;;;;5091157;28;20050;-71
2022/09/17 08:22:48;;;;;;;1.90;1.10;;;;;;;;;;5092432;28;20052;-72
2022/09/17 08:25:30;;;;;;;3.72;1.08;;;;;;;;;;5090922;28;20125;-71
2022/09/17 08:28:14;;;;;;;1.95;0.45;;;;;;;;;;5093149;28;20047;-72
2022/09/17 08:31:01;;;;;;;1.65;0.40;;;;;;;;;;5067673;28;20041;-71
2022/09/17 08:33:32;;;;;;;1.33;0.28;;;;;;;;;;5054115;28;20045;-71
2022/09/17 08:36:20;;;;;;;1.92;0.50;;;;;;;;;;5069571;28;20045;-73
2022/09/17 08:39:09;;;;;;;1.20;0.38;;;;;;;;;;5058271;28;20049;-72
2022/09/17 08:42:00;;;;;;;3.50;1.27;;;;;;;;;;5067436;28;20495;-70
2022/09/17 08:44:38;;;;;;;1.42;0.60;;;;;;;;;;5069674;28;20036;-72
2022/09/17 08:47:30;;;;;;;1.38;0.30;;;;;;;;;;5068977;28;20458;-71
2022/09/17 08:50:27;;;;;;;2.50;0.40;;;;;;;;;;5068946;28;20040;-71
2022/09/17 08:53:33;;;;;;;0.77;0.38;;;;;;;;;;5070297;28;20052;-72
2022/09/17 08:56:18;;;;;;;1.65;0.30;;;;;;;;;;5053037;28;20046;-71
2022/09/17 08:59:16;;;;;;;1.92;0.40;;;;;;;;;;5068391;28;20045;-71
2022/09/17 09:02:14;;;;;;;2.70;0.43;;;;;;;;;;5059599;28;20079;-71
2022/09/17 09:04:43;;;;;;;1.60;0.30;;;;;;;;;;5091758;28;20051;-71
2022/09/17 09:07:27;;;;;;;4.15;0.50;;;;;;;;;;5091728;28;20044;-71
2022/09/17 09:10:14;;;;;;;1.02;0.50;;;;;;;;;;5089899;28;20177;-71
2022/09/17 09:12:56;;;;;;;;;;;;;;;;;;5080364;28;20423;-72
2022/09/17 09:15:43;;;;;;;1.15;0.43;;;;;;;;;;5076399;28;19924;-72
2022/09/17 09:18:29;;;;;;;1.10;0.40;;;;;;;;;;5091751;28;20062;-71
2022/09/17 09:21:12;;;;;;;0.95;0.30;;;;;;;;;;5090774;28;20048;-72
2022/09/17 09:24:08;;;;;;;1.38;0.47;;;;;;;;;;5091556;28;20131;-72
2022/09/17 09:26:59;;;;;;;1.30;0.38;;;;;;;;;;5091302;28;20052;-72
2022/09/17 09:29:47;;;;;;;2.83;0.60;;;;;;;;;;5091465;28;20109;-72
2022/09/17 09:32:27;;;;;;;3.17;0.80;;;;;;;;;;5091938;28;20056;-72
2022/09/17 09:35:08;;;;;;;0.77;0.28;;;;;;;;;;5090708;28;20051;-71
2022/09/17 09:37:45;;;;;;;2.60;0.43;;;;;;;;;;5090839;28;20052;-72
2022/09/17 09:40:44;;;;;;;1.45;0.68;;;;;;;;;;5091769;28;20036;-72
2022/09/17 09:43:29;;;;;;;3.47;0.90;;;;;;;;;;5091443;28;20075;-72
2022/09/17 09:46:28;;;;;;;0.95;0.40;;;;;;;;;;5091631;28;20048;-72
2022/09/17 09:49:28;;;;;;;2.70;0.73;;;;;;;;;;5081680;28;20119;-72
2022/09/17 09:52:17;;;;;;;2.80;0.50;;;;;;;;;;5082858;28;20060;-71
2022/09/17 09:55:20;;;;;;;1.38;0.60;;;;;;;;;;5082340;28;20093;-71
2022/09/17 09:58:16;;;;;;;2.67;0.90;;;;;;;;;;5091159;28;20051;-71
2022/09/17 10:00:48;;;;;;;2.08;0.60;;;;;;;;;;5091009;28;20496;-72
2022/09/17 10:03:45;;;;;;;1.55;0.50;;;;;;;;;;5090131;28;20044;-71
2022/09/17 10:06:16;;;;;;;2.30;0.73;;;;;;;;;;5091265;28;20044;-71
2022/09/17 10:08:56;;;;;;;2.03;0.70;;;;;;;;;;5089306;28;20097;-71
2022/09/17 10:11:33;;;;;;;2.25;0.55;;;;;;;;;;5079214;28;20060;-71
2022/09/17 10:14:24;;;;;;;2.42;0.80;;;;;;;;;;5088699;28;20126;-72
2022/09/17 10:17:24;;;;;;;1.98;0.70;;;;;;;;;;5089892;28;20044;-72
2022/09/17 10:20:18;;;;;;;2.65;0.60;;;;;;;;;;5090506;28;20592;-71
2022/09/17 10:23:05;;;;;;;1.23;0.55;;;;;;;;;;5090356;28;20123;-71
2022/09/17 10:25:51;;;;;;;2.55;0.63;;;;;;;;;;5089495;28;20127;-70
2022/09/17 10:28:41;;;;;;;1.75;0.60;;;;;;;;;;5094291;28;20128;-70
2022/09/17 10:31:25;;;;;;;2.13;0.55;;;;;;;;;;5095987;28;20060;-71
2022/09/17 10:34:01;;;;;;;2.30;0.85;;;;;;;;;;5095268;28;20132;-71
2022/09/17 10:36:42;;;;;;;3.17;0.93;;;;;;;;;;5095139;28;20581;-71
2022/09/17 10:39:25;;;;;;;2.60;0.60;;;;;;;;;;5095637;28;20084;-71
2022/09/17 10:42:14;;;;;;;2.67;0.52;;;;;;;;;;5094089;28;20047;-71
2022/09/17 10:44:55;;;;;;;3.13;0.60;;;;;;;;;;5094572;28;20539;-70
2022/09/17 10:47:31;;;;;;;1.63;0.55;;;;;;;;;;5094696;28;20048;-71
2022/09/17 10:50:19;;;;;;;1.30;0.52;;;;;;;;;;5094887;28;20152;-73
2022/09/17 10:53:14;;;;;;;2.30;0.50;;;;;;;;;;5095099;28;20060;-71
2022/09/17 10:55:54;;;;;;;1.50;0.40;;;;;;;;;;5094602;28;20052;-70
2022/09/17 10:58:46;;;;;;;2.42;0.73;;;;;;;;;;5094817;28;20048;-70
2022/09/17 11:01:37;;;;;;;2.05;0.68;;;;;;;;;;5093447;28;20059;-68
2022/09/17 11:04:21;;;;;;;3.42;1.40;;;;;;;;;;5094407;28;20044;-72
2022/09/17 11:07:22;;;;;;;3.83;0.57;;;;;;;;;;5094099;28;20112;-72
2022/09/17 11:09:48;;;;;;;;;;;;;;;;;;5095192;28;20087;-71
2022/09/17 11:12:49;;;;;;;1.48;0.52;;;;;;;;;;5094872;28;19923;-71
2022/09/17 11:15:17;;;;;;;0.95;0.30;;;;;;;;;;5094585;28;20055;-71
2022/09/17 11:18:07;;;;;;;2.17;0.50;;;;;;;;;;5091160;28;20449;-72
2022/09/17 11:21:10;;;;;;;1.70;0.50;;;;;;;;;;5094264;28;20515;-69
2022/09/17 11:23:50;;;;;;;2.28;0.30;;;;;;;;;;5093980;28;20093;-70
2022/09/17 11:26:18;;;;;;;1.58;0.30;;;;;;;;;;5094385;28;20495;-70
2022/09/17 11:29:07;;;;;;;1.20;0.35;;;;;;;;;;5093610;28;20552;-71
2022/09/17 11:31:48;;;;;;;2.42;0.65;;;;;;;;;;5094564;28;20052;-71
2022/09/17 11:34:59;;;;;;;2.08;1.35;;;;;;;;;;5094334;28;20054;-71
2022/09/17 11:38:11;;;;;;;1.60;0.77;;;;;;;;;;5091478;28;20043;-70
2022/09/17 11:40:58;;;;;;;3.58;0.60;;;;;;;;;;5090610;28;20051;-71
2022/09/17 11:43:34;;;;;;;2.67;0.70;;;;;;;;;;5092796;28;20055;-73
2022/09/17 11:46:26;;;;;;;1.47;0.50;;;;;;;;;;5094800;28;20045;-72
2022/09/17 11:49:11;;;;;;;3.33;1.10;;;;;;;;;;5084231;28;20304;-71
2022/09/17 11:51:55;;;;;;;3.13;0.90;;;;;;;;;;5093441;28;20135;-70
2022/09/17 11:54:41;;;;;;;3.25;1.27;;;;;;;;;;5093339;28;20044;-71
2022/09/17 12:00:04;;;;;;;1.38;0.32;;;;;;;;;;5546791;22;20074;-66
2022/09/17 12:02:52;;;;;;;1.60;0.52;;;;;;;;;;4972004;28;20042;-65
2022/09/17 12:05:20;;;;;;;1.10;0.52;;;;;;;;;;4972844;28;20066;-66
2022/09/17 12:07:56;;;;;;;1.77;0.40;;;;;;;;;;4973210;28;20506;-65
2022/09/17 12:10:43;;;;;;;1.13;0.47;;;;;;;;;;4973828;28;20090;-67
2022/09/17 13:07:11;;;;;;;2.00;0.35;;;;;;;;;;4972177;28;20057;-65
2022/09/17 13:09:41;;;;;;;1.70;0.30;;;;;;;;;;4973096;28;20532;-66
2022/09/17 13:12:09;;;;;;;1.33;0.50;;;;;;;;;;4969536;28;20292;-66
2022/09/17 13:14:35;;;;;;;1.63;0.40;;;;;;;;;;4972481;28;20047;-64
2022/09/17 13:17:18;;;;;;;1.10;0.30;;;;;;;;;;4972392;28;20479;-65
2022/09/17 13:19:47;;;;;;;0.80;0.30;;;;;;;;;;4972774;28;20061;-64
2022/09/17 13:22:13;;;;;;;0.85;0.20;;;;;;;;;;4972394;28;20046;-64
2022/09/17 13:24:40;;;;;;;2.05;0.22;;;;;;;;;;4973056;28;20054;-64
2022/09/17 13:27:22;;;;;;;0.85;0.20;;;;;;;;;;4972428;28;20051;-64
2022/09/17 13:29:54;;;;;;;1.77;0.40;;;;;;;;;;4972317;28;20051;-66
2022/09/17 13:32:33;;;;;;;0.93;0.20;;;;;;;;;;4972614;28;20054;-65
2022/09/17 13:35:05;;;;;;;0.75;0.30;;;;;;;;;;4972088;28;20043;-66
2022/09/17 13:37:34;;;;;;;2.03;0.38;;;;;;;;;;4972361;28;20050;-64
2022/09/17 13:40:01;;;;;;;1.17;0.40;;;;;;;;;;4972250;28;20502;-66
2022/09/17 13:42:42;;;;;;;2.67;0.50;;;;;;;;;;4972256;28;20046;-64
2022/09/17 13:45:15;;;;;;;1.35;0.20;;;;;;;;;;4972399;28;20046;-64
2022/09/17 13:48:00;;;;;;;4.10;0.90;;;;;;;;;;4970416;28;20487;-65
2022/09/17 13:50:30;;;;;;;1.53;0.50;;;;;;;;;;4972696;28;20157;-64
2022/09/17 13:52:57;;;;;;;1.17;0.60;;;;;;;;;;4972648;28;20285;-65
2022/09/17 13:55:36;;;;;;;3.03;0.47;;;;;;;;;;4972018;28;20047;-64
2022/09/17 13:58:07;;;;;;;4.15;0.50;;;;;;;;;;4972261;28;20211;-65
2022/09/17 14:00:46;;;;;;;2.33;0.68;;;;;;;;;;4972222;28;20047;-65
2022/09/17 14:03:35;;;;;;;2.78;0.82;;;;;;;;;;4975157;28;20070;-65
2022/09/17 14:06:02;;;;;;;0.90;0.40;;;;;;;;;;4976324;28;20146;-65
2022/09/17 14:08:29;;;;;;;;;;;;;;;;;;4976916;28;20058;-64
2022/09/17 14:10:57;;;;;;;1.98;0.40;;;;;;;;;;4976453;28;19932;-64
2022/09/17 14:13:37;;;;;;;1.90;0.50;;;;;;;;;;4976523;28;20413;-65
2022/09/17 14:16:22;;;;;;;2.45;0.95;;;;;;;;;;4976625;28;20047;-66
2022/09/17 14:18:57;;;;;;;0.70;0.30;;;;;;;;;;4976832;28;20047;-67
2022/09/17 14:21:33;;;;;;;1.40;0.40;;;;;;;;;;4975781;28;20050;-67
2022/09/17 14:24:01;;;;;;;1.77;0.57;;;;;;;;;;4975959;28;20051;-65
2022/09/17 14:26:35;;;;;;;1.95;0.40;;;;;;;;;;4976529;28;20061;-66
2022/09/17 14:29:20;;;;;;;1.30;0.50;;;;;;;;;;4976374;28;20064;-66
2022/09/17 14:31:47;;;;;;;3.95;0.35;;;;;;;;;;4976230;28;20057;-65
2022/09/17 14:34:21;;;;;;;1.98;0.70;;;;;;;;;;4976010;28;20085;-67
2022/09/17 14:36:48;;;;;;;2.75;0.50;;;;;;;;;;4976120;28;20059;-66
2022/09/17 14:39:19;;;;;;;3.60;1.38;;;;;;;;;;4975617;28;20057;-67
2022/09/17 14:41:46;;;;;;;2.17;0.98;;;;;;;;;;4976179;28;20043;-67
2022/09/17 14:44:18;;;;;;;1.20;0.50;;;;;;;;;;4976066;28;20057;-66
2022/09/17 14:46:54;;;;;;;2.95;0.80;;;;;;;;;;4973597;28;20054;-66
2022/09/17 14:49:24;;;;;;;1.83;0.52;;;;;;;;;;4975885;28;20054;-65
2022/09/17 14:51:54;;;;;;;2.85;1.05;;;;;;;;;;4975889;28;20059;-66
2022/09/17 14:54:23;;;;;;;2.10;0.85;;;;;;;;;;4975112;28;20053;-65
2022/09/17 14:56:54;;;;;;;2.25;0.57;;;;;;;;;;4975116;28;20490;-66
2022/09/17 14:59:23;;;;;;;2.05;0.50;;;;;;;;;;4975428;28;20130;-65
2022/09/17 15:01:50;;;;;;;3.00;0.50;;;;;;;;;;4974888;28;20565;-66
2022/09/17 15:04:20;;;;;;;2.30;0.60;;;;;;;;;;4975264;28;20049;-65
2022/09/17 15:06:47;;;;;;;1.80;0.40;;;;;;;;;;4974786;28;20058;-65
2022/09/17 15:09:15;;;;;;;2.65;0.60;;;;;;;;;;4975093;28;20046;-66
2022/09/17 15:11:43;;;;;;;1.38;0.50;;;;;;;;;;4974840;28;20046;-65
2022/09/17 15:14:17;;;;;;;2.42;0.40;;;;;;;;;;4974614;28;20072;-66
2022/09/17 15:16:48;;;;;;;0.98;0.25;;;;;;;;;;4975016;28;20387;-66
2022/09/17 15:19:19;;;;;;;2.42;0.57;;;;;;;;;;4974690;28;20047;-66
2022/09/17 15:21:48;;;;;;;1.67;0.70;;;;;;;;;;4975148;28;20379;-65
2022/09/17 15:24:33;;;;;;;1.88;0.50;;;;;;;;;;4975090;28;20054;-66
2022/09/17 15:27:04;;;;;;;2.88;1.13;;;;;;;;;;4974652;28;20047;-67
2022/09/17 15:29:32;;;;;;;1.73;0.30;;;;;;;;;;4974577;28;20046;-66
2022/09/17 15:32:01;;;;;;;1.67;0.30;;;;;;;;;;4974365;28;20055;-66
2022/09/17 15:34:27;;;;;;;1.55;0.28;;;;;;;;;;4974651;28;20054;-66
2022/09/17 15:36:54;;;;;;;;;;;;;;;;;;4975050;28;20050;-65
2022/09/17 15:39:30;;;;;;;2.38;0.35;;;;;;;;;;4974888;28;19922;-65
2022/09/17 15:41:57;;;;;;;1.23;0.32;;;;;;;;;;4973384;28;20502;-65
2022/09/17 15:44:24;;;;;;;0.63;0.30;;;;;;;;;;4973661;28;20057;-65
2022/09/17 15:47:16;;;;;;;2.05;0.30;;;;;;;;;;4973412;28;20076;-65
2022/09/17 15:50:02;;;;;;;1.00;0.30;;;;;;;;;;4974337;28;20059;-65
2022/09/17 15:52:32;;;;;;;0.95;0.32;;;;;;;;;;4975378;28;20047;-65
2022/09/17 15:54:59;;;;;;;1.45;0.40;;;;;;;;;;4974755;28;20042;-65
2022/09/17 15:57:29;;;;;;;1.13;0.30;;;;;;;;;;4974834;28;20051;-65
2022/09/17 15:59:55;;;;;;;1.88;0.40;;;;;;;;;;4975000;28;20485;-65
2022/09/17 16:02:21;;;;;;;;;;;;;;;;;;4975126;28;20049;-65
2022/09/17 16:04:51;;;;;;;1.00;0.40;;;;;;;;;;4974692;28;20399;-65
2022/09/17 16:07:28;;;;;;;1.25;0.35;;;;;;;;;;4975057;28;20046;-65
2022/09/17 16:09:55;;;;;;;1.85;0.30;;;;;;;;;;4975017;28;20252;-64
2022/09/17 16:12:23;;;;;;;1.35;0.43;;;;;;;;;;4974551;28;20060;-64
2022/09/17 16:14:51;;;;;;;1.17;0.35;;;;;;;;;;4974839;28;20050;-64
2022/09/17 16:17:21;;;;;;;1.67;0.40;;;;;;;;;;4974790;28;20050;-65
2022/09/17 16:19:48;;;;;;;1.33;0.40;;;;;;;;;;4974748;28;20057;-64
2022/09/17 16:22:14;;;;;;;1.63;0.40;;;;;;;;;;4974482;28;20069;-64
2022/09/17 16:24:41;;;;;;;2.33;0.60;;;;;;;;;;4974231;28;20043;-64
2022/09/17 16:27:11;;;;;;;1.75;0.50;;;;;;;;;;4974348;28;20051;-64
2022/09/17 16:29:38;;;;;;;1.73;0.30;;;;;;;;;;4974482;28;20055;-65
2022/09/17 16:32:04;;;;;;;0.90;0.30;;;;;;;;;;4974705;28;20057;-64
2022/09/17 16:34:31;;;;;;;1.07;0.30;;;;;;;;;;4974320;28;20066;-64
2022/09/17 16:36:57;;;;;;;1.40;0.20;;;;;;;;;;4973970;28;20061;-65
2022/09/17 16:39:23;;;;;;;1.83;0.30;;;;;;;;;;4971935;28;20070;-64
2022/09/17 16:41:50;;;;;;;1.90;0.30;;;;;;;;;;4973965;28;20687;-67